createdAt,value
2023-03-08T00:02:16.052Z,6.95
2023-03-08T00:04:43.163Z,6.45
2023-03-08T00:07:10.634Z,5.72
2023-03-08T00:09:40.825Z,7.63
2023-03-08T00:12:10.590Z,6.90
2023-03-08T00:14:37.881Z,6.55
2023-03-08T00:17:05.332Z,7.03
2023-03-08T00:19:32.560Z,7.45
2023-03-08T00:21:59.772Z,6.50
2023-03-08T00:24:26.833Z,8.40
2023-03-08T00:26:53.991Z,8.75
2023-03-08T00:29:21.427Z,8.93
2023-03-08T00:31:48.695Z,7.70
2023-03-08T00:34:15.961Z,7.00
2023-03-08T00:36:43.205Z,6.53
2023-03-08T00:39:11.519Z,9.00
2023-03-08T00:41:38.799Z,6.25
2023-03-08T00:44:05.922Z,7.90
2023-03-08T00:46:33.086Z,7.20
2023-03-08T00:49:00.302Z,5.75
2023-03-08T00:51:27.456Z,7.85
2023-03-08T00:53:54.667Z,8.43
2023-03-08T00:56:21.855Z,7.45
2023-03-08T00:58:49.026Z,15.18
2023-03-08T01:01:17.564Z,10.52
2023-03-08T01:03:44.817Z,13.82
2023-03-08T01:06:13.359Z,8.18
2023-03-08T01:08:42.088Z,10.85
2023-03-08T01:11:15.173Z,8.13
2023-03-08T01:13:42.339Z,7.65
2023-03-08T01:16:16.043Z,7.38
2023-03-08T01:18:43.195Z,7.57
2023-03-08T01:21:11.108Z,8.30
2023-03-08T01:23:38.425Z,9.38
2023-03-08T01:26:06.930Z,12.18
2023-03-08T01:28:34.688Z,8.25
2023-03-08T01:31:09.143Z,10.23
2023-03-08T01:33:36.479Z,13.63
2023-03-08T01:36:04.877Z,11.70
2023-03-08T01:38:32.075Z,12.48
2023-03-08T01:41:00.039Z,9.85
2023-03-08T01:43:28.851Z,12.82
2023-03-08T01:46:15.026Z,11.80
2023-03-08T01:49:02.521Z,10.20
2023-03-08T01:51:36.224Z,11.98
2023-03-08T01:54:06.217Z,10.13
2023-03-08T01:56:33.911Z,11.43
2023-03-08T01:59:01.366Z,12.68
2023-03-08T02:01:28.684Z,13.45
2023-03-08T02:03:55.811Z,11.77
2023-03-08T02:06:23.296Z,10.65
2023-03-08T02:08:50.508Z,12.27
2023-03-08T02:11:18.354Z,12.82
2023-03-08T02:13:45.752Z,10.15
2023-03-08T02:16:13.851Z,13.52
2023-03-08T02:19:10.091Z,10.98
2023-03-08T02:21:37.680Z,10.23
2023-03-08T02:24:17.899Z,11.98
2023-03-08T02:26:46.023Z,9.57
2023-03-08T02:29:13.201Z,11.95
2023-03-08T02:31:41.155Z,13.05
2023-03-08T02:34:08.339Z,11.20
2023-03-08T02:36:35.433Z,11.40
2023-03-08T02:39:02.712Z,11.38
2023-03-08T02:41:29.891Z,11.38
2023-03-08T02:43:57.098Z,10.43
2023-03-08T02:46:24.216Z,7.93
2023-03-08T02:48:52.828Z,9.88
2023-03-08T02:51:20.571Z,8.35
2023-03-08T02:53:47.867Z,8.95
2023-03-08T02:56:15.004Z,11.88
2023-03-08T02:58:42.154Z,10.98
2023-03-08T03:01:18.315Z,11.32
2023-03-08T03:03:45.459Z,12.20
2023-03-08T03:06:16.737Z,14.55
2023-03-08T03:08:43.968Z,9.05
2023-03-08T03:11:18.698Z,10.40
2023-03-08T03:13:45.862Z,9.82
2023-03-08T03:16:14.866Z,10.90
2023-03-08T03:18:42.379Z,9.25
2023-03-08T03:21:10.938Z,8.20
2023-03-08T03:23:38.517Z,7.57
2023-03-08T03:26:12.870Z,9.38
2023-03-08T03:28:40.164Z,9.10
2023-03-08T03:31:08.354Z,9.40
2023-03-08T03:33:35.647Z,8.93
2023-03-08T03:36:03.265Z,12.23
2023-03-08T03:38:30.498Z,7.70
2023-03-08T03:41:01.625Z,7.93
2023-03-08T03:43:28.907Z,11.37
2023-03-08T03:45:59.742Z,11.63
2023-03-08T03:48:27.120Z,9.23
2023-03-08T03:50:57.365Z,9.60
2023-03-08T03:53:24.707Z,9.68
2023-03-08T03:55:52.194Z,8.07
2023-03-08T03:58:19.339Z,10.50
2023-03-08T04:00:46.798Z,14.98
2023-03-08T04:03:14.100Z,11.00
2023-03-08T04:05:41.488Z,9.98
2023-03-08T04:08:09.036Z,7.80
2023-03-08T04:10:36.216Z,9.73
2023-03-08T04:13:03.314Z,10.40
2023-03-08T04:15:30.491Z,9.30
2023-03-08T04:17:57.801Z,12.82
2023-03-08T04:20:25.362Z,9.10
2023-03-08T04:22:52.542Z,11.48
2023-03-08T04:25:20.282Z,12.27
2023-03-08T04:27:47.658Z,7.30
2023-03-08T04:30:14.963Z,9.55
2023-03-08T04:32:42.180Z,9.73
2023-03-08T04:35:09.542Z,6.82
2023-03-08T04:37:37.174Z,11.13
2023-03-08T04:40:07.827Z,8.88
2023-03-08T04:42:34.937Z,6.22
2023-03-08T04:45:02.158Z,7.20
2023-03-08T04:47:29.303Z,5.95
2023-03-08T04:49:56.578Z,5.88
2023-03-08T04:52:23.705Z,7.57
2023-03-08T04:54:50.888Z,8.07
2023-03-08T04:57:20.470Z,7.18
2023-03-08T04:59:47.966Z,6.25
2023-03-08T05:02:15.173Z,5.80
2023-03-08T05:04:42.386Z,7.53
2023-03-08T05:07:09.505Z,6.50
2023-03-08T05:09:36.795Z,6.72
2023-03-08T05:12:03.976Z,6.63
2023-03-08T05:14:31.110Z,12.32
2023-03-08T05:16:58.452Z,7.10
2023-03-08T05:19:25.609Z,6.10
2023-03-08T05:21:52.763Z,6.85
2023-03-08T05:24:20.018Z,6.97
2023-03-08T05:26:48.317Z,7.35
2023-03-08T05:29:15.493Z,10.57
2023-03-08T05:31:45.574Z,6.32
2023-03-08T05:34:12.726Z,10.10
2023-03-08T05:36:39.893Z,8.50
2023-03-08T05:39:07.024Z,7.13
2023-03-08T05:41:34.420Z,7.28
2023-03-08T05:44:02.425Z,9.95
2023-03-08T05:46:31.636Z,8.85
2023-03-08T05:48:59.021Z,7.68
2023-03-08T05:51:26.226Z,9.88
2023-03-08T05:53:53.398Z,10.45
2023-03-08T05:56:22.070Z,7.88
2023-03-08T05:58:49.829Z,6.97
2023-03-08T06:01:24.189Z,7.45
2023-03-08T06:03:52.830Z,7.18
2023-03-08T06:06:21.202Z,11.75
2023-03-08T06:08:48.984Z,8.30
2023-03-08T06:11:17.163Z,8.13
2023-03-08T06:13:44.726Z,7.57
2023-03-08T06:16:12.474Z,7.05
2023-03-08T06:18:40.753Z,13.07
2023-03-08T06:21:15.296Z,7.78
2023-03-08T06:23:42.631Z,7.93
2023-03-08T06:26:10.251Z,8.63
2023-03-08T06:28:37.612Z,7.47
2023-03-08T06:31:04.826Z,10.57
2023-03-08T06:33:32.837Z,13.63
2023-03-08T06:36:03.869Z,8.75
2023-03-08T06:38:33.477Z,6.70
2023-03-08T06:41:01.285Z,7.13
2023-03-08T06:43:28.700Z,10.07
2023-03-08T06:45:56.217Z,8.52
2023-03-08T06:48:23.937Z,12.02
2023-03-08T06:50:51.419Z,8.23
2023-03-08T06:53:18.607Z,13.63
2023-03-08T06:55:45.700Z,12.13
2023-03-08T06:58:12.850Z,15.57
2023-03-08T07:00:40.142Z,20.30
2023-03-08T07:03:07.281Z,19.55
2023-03-08T07:05:34.647Z,24.75
2023-03-08T07:08:01.905Z,31.88
2023-03-08T07:10:29.718Z,41.80
2023-03-08T07:12:56.977Z,58.58
2023-03-08T07:15:24.805Z,51.90
2023-03-08T07:17:54.907Z,20.38
2023-03-08T07:20:23.088Z,71.95
2023-03-08T07:22:50.309Z,44.13
2023-03-08T07:25:18.807Z,71.65
2023-03-08T07:27:46.140Z,37.65
2023-03-08T07:30:14.546Z,42.67
2023-03-08T07:32:45.139Z,101.45
2023-03-08T07:35:13.749Z,76.32
2023-03-08T07:37:40.959Z,64.13
2023-03-08T07:40:08.629Z,53.25
2023-03-08T07:42:35.839Z,36.90
2023-03-08T07:45:03.687Z,41.20
2023-03-08T07:47:30.810Z,62.85
2023-03-08T07:49:58.584Z,66.97
2023-03-08T07:52:29.651Z,34.95
2023-03-08T07:54:56.989Z,21.92
2023-03-08T07:57:24.724Z,57.25
2023-03-08T07:59:53.579Z,40.28
2023-03-08T08:02:21.786Z,50.90
2023-03-08T08:04:49.066Z,58.38
2023-03-08T08:07:16.839Z,38.45
2023-03-08T08:09:43.998Z,43.08
2023-03-08T08:12:11.333Z,44.53
2023-03-08T08:14:38.545Z,61.45
2023-03-08T08:17:05.733Z,56.25
2023-03-08T08:19:33.049Z,45.05
2023-03-08T08:22:00.604Z,42.40
2023-03-08T08:24:28.435Z,55.65
2023-03-08T08:26:55.572Z,41.35
2023-03-08T08:29:22.727Z,58.95
2023-03-08T08:31:52.708Z,26.80
2023-03-08T08:34:20.770Z,38.63
2023-03-08T08:36:48.154Z,38.75
2023-03-08T08:39:15.396Z,30.88
2023-03-08T08:41:42.647Z,37.80
2023-03-08T08:44:09.772Z,70.28
2023-03-08T08:46:36.911Z,38.83
2023-03-08T08:49:05.546Z,52.58
2023-03-08T08:51:32.988Z,41.53
2023-03-08T08:54:00.359Z,34.38
2023-03-08T08:56:29.383Z,30.25
2023-03-08T08:59:03.207Z,34.15
2023-03-08T09:01:32.308Z,41.45
2023-03-08T09:03:59.783Z,35.13
2023-03-08T09:06:27.744Z,48.70
2023-03-08T09:08:55.657Z,31.98
2023-03-08T09:11:23.360Z,26.00
2023-03-08T09:13:50.641Z,40.63
2023-03-08T09:16:20.836Z,43.17
2023-03-08T09:18:48.512Z,32.53
2023-03-08T09:21:16.019Z,29.92
2023-03-08T09:23:43.217Z,28.77
2023-03-08T09:26:10.689Z,23.08
2023-03-08T09:28:38.221Z,33.90
2023-03-08T09:31:12.819Z,25.20
2023-03-08T09:33:41.515Z,20.98
2023-03-08T09:36:08.906Z,20.83
2023-03-08T09:38:36.370Z,28.83
2023-03-08T09:41:12.727Z,24.60
2023-03-08T09:43:46.410Z,23.75
2023-03-08T09:46:20.149Z,25.92
2023-03-08T09:48:49.880Z,21.95
2023-03-08T09:51:19.852Z,22.30
2023-03-08T09:53:55.000Z,21.02
2023-03-08T09:56:39.021Z,23.17
2023-03-08T09:59:18.688Z,20.10
2023-03-08T10:01:48.937Z,21.55
2023-03-08T10:04:21.277Z,27.17
2023-03-08T10:06:57.881Z,25.40
2023-03-08T10:09:29.232Z,29.45
2023-03-08T10:11:56.385Z,23.15
2023-03-08T10:14:26.805Z,24.13
2023-03-08T10:17:00.362Z,26.60
2023-03-08T10:19:29.688Z,19.85
2023-03-08T10:21:57.681Z,18.38
2023-03-08T10:24:27.224Z,21.48
2023-03-08T10:26:55.409Z,21.77
2023-03-08T10:29:22.537Z,20.25
2023-03-08T10:31:50.192Z,20.70
2023-03-08T10:34:26.567Z,15.60
2023-03-08T10:36:58.441Z,17.08
2023-03-08T10:39:25.578Z,16.42
2023-03-08T10:42:01.121Z,17.83
2023-03-08T10:44:34.128Z,16.95
2023-03-08T10:47:02.805Z,22.60
2023-03-08T10:49:29.960Z,22.33
2023-03-08T10:51:58.751Z,21.83
2023-03-08T10:54:26.551Z,20.58
2023-03-08T10:57:01.131Z,24.00
2023-03-08T10:59:33.001Z,19.85
2023-03-08T11:02:18.278Z,19.33
2023-03-08T11:04:53.097Z,18.38
2023-03-08T11:07:24.240Z,21.13
2023-03-08T11:09:51.408Z,22.50
2023-03-08T11:12:26.174Z,16.40
2023-03-08T11:14:53.574Z,20.55
2023-03-08T11:17:26.757Z,16.85
2023-03-08T11:20:13.645Z,13.95
2023-03-08T11:22:43.867Z,15.48
2023-03-08T11:25:25.844Z,20.55
2023-03-08T11:28:11.980Z,17.35
2023-03-08T11:30:45.268Z,17.65
2023-03-08T11:33:12.513Z,19.60
2023-03-08T11:35:52.553Z,21.13
2023-03-08T11:38:19.768Z,20.20
2023-03-08T11:40:59.558Z,19.20
2023-03-08T11:43:37.979Z,21.85
2023-03-08T11:46:11.150Z,25.83
2023-03-08T11:48:39.118Z,22.52
2023-03-08T11:51:22.071Z,22.25
2023-03-08T11:53:58.398Z,23.50
2023-03-08T11:56:34.541Z,15.15
2023-03-08T11:59:04.348Z,20.00
2023-03-08T12:01:36.530Z,14.30
2023-03-08T12:04:10.514Z,13.30
2023-03-08T12:06:40.827Z,13.23
2023-03-08T12:09:08.237Z,11.32
2023-03-08T12:12:04.928Z,10.77
2023-03-08T12:14:33.353Z,14.10
2023-03-08T12:17:05.135Z,9.30
2023-03-08T12:19:38.786Z,9.43
2023-03-08T12:22:17.890Z,10.10
2023-03-08T12:24:53.106Z,11.10
2023-03-08T12:27:20.151Z,9.15
2023-03-08T12:29:47.274Z,8.48
2023-03-08T12:32:15.366Z,13.70
2023-03-08T12:34:44.474Z,9.68
2023-03-08T12:37:22.066Z,7.60
2023-03-08T12:39:56.711Z,10.10
2023-03-08T12:42:40.535Z,12.68
2023-03-08T12:45:19.782Z,12.73
2023-03-08T12:48:16.189Z,11.00
2023-03-08T12:51:00.755Z,10.25
2023-03-08T12:53:28.235Z,9.18
2023-03-08T12:56:03.868Z,16.17
2023-03-08T12:58:31.609Z,12.80
2023-03-08T13:01:00.870Z,9.50
2023-03-08T13:03:37.938Z,8.02
2023-03-08T13:06:33.310Z,10.82
2023-03-08T13:09:00.412Z,9.88
2023-03-08T13:11:38.499Z,8.32
2023-03-08T13:14:06.075Z,11.32
2023-03-08T13:16:35.402Z,10.55
2023-03-08T13:19:15.232Z,11.30
2023-03-08T13:21:48.348Z,9.77
2023-03-08T13:24:20.318Z,12.20
2023-03-08T13:26:50.758Z,14.05
2023-03-08T13:29:19.615Z,13.55
2023-03-08T13:31:47.877Z,12.25
2023-03-08T13:34:23.806Z,11.05
2023-03-08T13:36:51.019Z,9.63
2023-03-08T13:39:28.350Z,10.77
2023-03-08T13:42:06.334Z,13.18
2023-03-08T13:44:33.994Z,10.43
2023-03-08T13:47:27.438Z,11.27
2023-03-08T13:49:55.787Z,9.48
2023-03-08T13:52:25.053Z,14.15
2023-03-08T13:54:56.713Z,13.93
2023-03-08T13:57:34.475Z,10.50
2023-03-08T14:00:03.048Z,13.35
2023-03-08T14:02:31.206Z,11.05
2023-03-08T14:04:59.226Z,8.73
2023-03-08T14:07:30.639Z,8.55
2023-03-08T14:09:58.009Z,11.57
2023-03-08T14:12:30.524Z,11.70
2023-03-08T14:15:05.988Z,9.48
2023-03-08T14:17:34.852Z,8.07
2023-03-08T14:20:05.375Z,12.93
2023-03-08T14:22:39.727Z,10.80
2023-03-08T14:25:08.932Z,11.15
2023-03-08T14:27:45.396Z,13.48
2023-03-08T14:30:14.680Z,11.57
2023-03-08T14:32:42.841Z,11.77
2023-03-08T14:35:20.937Z,13.57
2023-03-08T14:37:48.451Z,11.23
2023-03-08T14:40:26.280Z,9.55
2023-03-08T14:42:55.548Z,6.28
2023-03-08T14:45:26.973Z,6.60
2023-03-08T14:47:58.097Z,13.98
2023-03-08T14:50:30.796Z,9.43
2023-03-08T14:52:58.863Z,8.82
2023-03-08T14:55:35.976Z,9.15
2023-03-08T14:58:11.296Z,10.20
2023-03-08T15:00:49.012Z,9.48
2023-03-08T15:03:16.537Z,8.00
2023-03-08T15:05:45.825Z,6.82
2023-03-08T15:08:13.703Z,3.75
2023-03-08T15:10:41.370Z,5.57
2023-03-08T15:13:13.347Z,7.80
2023-03-08T15:15:40.733Z,5.70
2023-03-08T15:18:07.970Z,6.22
2023-03-08T15:20:37.977Z,5.68
2023-03-08T15:23:08.089Z,6.03
2023-03-08T15:25:37.295Z,7.30
2023-03-08T15:28:06.237Z,6.22
2023-03-08T15:30:33.863Z,6.32
2023-03-08T15:33:02.150Z,7.45
2023-03-08T15:35:30.306Z,5.85
2023-03-08T15:37:57.800Z,6.10
2023-03-08T15:40:26.958Z,8.07
2023-03-08T15:42:54.880Z,6.22
2023-03-08T15:45:22.330Z,5.15
2023-03-08T15:47:56.635Z,6.20
2023-03-08T15:50:24.089Z,5.13
2023-03-08T15:52:52.492Z,9.02
2023-03-08T15:55:19.679Z,6.15
2023-03-08T15:57:46.856Z,5.72
2023-03-08T16:00:15.807Z,6.65
2023-03-08T16:02:42.964Z,5.13
2023-03-08T16:05:11.309Z,5.70
2023-03-08T16:07:39.129Z,6.55
2023-03-08T16:10:07.520Z,7.50
2023-03-08T16:12:34.757Z,6.57
2023-03-08T16:15:02.005Z,5.90
2023-03-08T16:17:32.463Z,6.97
2023-03-08T16:19:59.591Z,8.10
2023-03-08T16:22:28.862Z,8.93
2023-03-08T16:24:56.392Z,9.07
2023-03-08T16:27:23.622Z,9.55
2023-03-08T16:29:52.670Z,7.68
2023-03-08T16:32:20.785Z,7.30
2023-03-08T16:34:51.250Z,9.15
2023-03-08T16:37:21.950Z,6.95
2023-03-08T16:39:49.776Z,7.03
2023-03-08T16:42:17.820Z,7.85
2023-03-08T16:44:52.333Z,9.05
2023-03-08T16:47:20.026Z,9.23
2023-03-08T16:49:47.561Z,9.52
2023-03-08T16:52:16.083Z,7.40
2023-03-08T16:54:43.414Z,11.27
2023-03-08T16:57:18.626Z,7.57
2023-03-08T16:59:46.857Z,7.35
2023-03-08T17:02:18.461Z,11.18
2023-03-08T17:04:46.060Z,8.73
2023-03-08T17:07:13.358Z,6.78
2023-03-08T17:09:40.884Z,6.93
2023-03-08T17:12:09.044Z,6.45
2023-03-08T17:14:36.786Z,6.35
2023-03-08T17:17:04.512Z,7.95
2023-03-08T17:19:31.665Z,9.48
2023-03-08T17:21:58.813Z,9.05
2023-03-08T17:24:28.273Z,8.38
2023-03-08T17:26:55.871Z,7.93
2023-03-08T17:29:23.249Z,7.10
2023-03-08T17:31:50.808Z,8.02
2023-03-08T17:34:18.341Z,8.77
2023-03-08T17:36:46.987Z,7.88
2023-03-08T17:39:14.353Z,9.20
2023-03-08T17:41:41.818Z,9.45
2023-03-08T17:44:09.337Z,8.18
2023-03-08T17:46:36.583Z,9.68
2023-03-08T17:49:04.259Z,14.63
2023-03-08T17:51:33.291Z,10.80
2023-03-08T17:54:02.269Z,12.82
2023-03-08T17:56:30.551Z,8.23
2023-03-08T17:58:59.052Z,7.70
2023-03-08T18:01:27.544Z,9.30
2023-03-08T18:03:58.244Z,8.82
2023-03-08T18:06:25.392Z,11.18
2023-03-08T18:08:52.696Z,10.18
2023-03-08T18:11:19.803Z,11.00
2023-03-08T18:13:47.270Z,8.68
2023-03-08T18:16:14.696Z,10.55
2023-03-08T18:18:42.083Z,7.50
2023-03-08T18:21:13.906Z,10.02
2023-03-08T18:23:42.797Z,10.23
2023-03-08T18:26:10.855Z,11.27
2023-03-08T18:28:38.086Z,9.98
2023-03-08T18:31:13.224Z,10.60
2023-03-08T18:33:40.717Z,8.35
2023-03-08T18:36:08.295Z,12.95
2023-03-08T18:38:35.855Z,7.70
2023-03-08T18:41:13.614Z,11.15
2023-03-08T18:43:41.109Z,11.90
2023-03-08T18:46:12.397Z,11.77
2023-03-08T18:48:40.461Z,9.73
2023-03-08T18:51:07.861Z,9.00
2023-03-08T18:53:35.044Z,10.90
2023-03-08T18:56:05.139Z,14.75
2023-03-08T18:58:32.685Z,9.93
2023-03-08T19:01:02.969Z,11.13
2023-03-08T19:03:31.414Z,11.88
2023-03-08T19:06:02.260Z,9.88
2023-03-08T19:08:29.799Z,10.25
2023-03-08T19:10:57.191Z,11.63
2023-03-08T19:13:24.408Z,12.88
2023-03-08T19:15:52.172Z,10.77
2023-03-08T19:18:19.373Z,14.85
2023-03-08T19:20:46.624Z,20.60
2023-03-08T19:23:13.960Z,26.27
2023-03-08T19:25:59.856Z,11.95
2023-03-08T19:28:27.344Z,18.80
2023-03-08T19:30:55.438Z,22.17
2023-03-08T19:33:30.768Z,13.68
2023-03-08T19:35:58.426Z,12.85
2023-03-08T19:38:25.900Z,8.05
2023-03-08T19:40:53.123Z,11.23
2023-03-08T19:43:20.737Z,12.60
2023-03-08T19:45:50.866Z,13.90
2023-03-08T19:48:18.240Z,11.60
2023-03-08T19:50:46.569Z,12.48
2023-03-08T19:53:13.916Z,17.52
2023-03-08T19:55:51.212Z,19.48
2023-03-08T19:58:19.579Z,11.80
2023-03-08T20:00:47.620Z,17.52
2023-03-08T20:03:16.548Z,17.60
2023-03-08T20:05:44.790Z,15.50
2023-03-08T20:08:12.554Z,13.57
2023-03-08T20:10:39.796Z,14.80
2023-03-08T20:13:07.159Z,17.08
2023-03-08T20:15:34.343Z,18.77
2023-03-08T20:18:01.772Z,14.07
2023-03-08T20:20:29.507Z,16.52
2023-03-08T20:22:56.996Z,24.02
2023-03-08T20:25:24.116Z,20.40
2023-03-08T20:27:51.352Z,13.95
2023-03-08T20:30:18.657Z,20.77
2023-03-08T20:32:45.881Z,18.83
2023-03-08T20:35:15.060Z,16.48
2023-03-08T20:37:42.658Z,20.77
2023-03-08T20:40:14.014Z,19.55
2023-03-08T20:42:41.188Z,15.40
2023-03-08T20:45:08.835Z,17.27
2023-03-08T20:47:36.123Z,15.13
2023-03-08T20:50:04.013Z,13.98
2023-03-08T20:52:31.165Z,10.60
2023-03-08T20:54:58.280Z,12.00
2023-03-08T20:57:25.530Z,12.63
2023-03-08T20:59:53.330Z,13.35
2023-03-08T21:02:21.159Z,11.90
2023-03-08T21:04:48.326Z,16.05
2023-03-08T21:07:15.818Z,16.00
2023-03-08T21:09:44.643Z,13.63
2023-03-08T21:12:11.890Z,11.20
2023-03-08T21:14:39.190Z,13.32
2023-03-08T21:17:06.376Z,9.52
2023-03-08T21:19:33.620Z,9.85
2023-03-08T21:22:01.331Z,11.52
2023-03-08T21:24:28.545Z,10.77
2023-03-08T21:26:55.715Z,11.95
2023-03-08T21:29:23.716Z,14.38
2023-03-08T21:31:51.942Z,11.80
2023-03-08T21:34:19.814Z,11.82
2023-03-08T21:36:47.088Z,9.80
2023-03-08T21:39:14.649Z,9.75
2023-03-08T21:41:43.394Z,12.32
2023-03-08T21:44:13.050Z,11.23
2023-03-08T21:46:40.955Z,12.45
2023-03-08T21:49:08.549Z,11.52
2023-03-08T21:51:36.996Z,11.10
2023-03-08T21:54:05.879Z,12.85
2023-03-08T21:56:35.602Z,13.15
2023-03-08T21:59:03.069Z,10.75
2023-03-08T22:01:31.361Z,10.68
2023-03-08T22:03:59.300Z,12.02
2023-03-08T22:06:26.794Z,12.20
2023-03-08T22:08:54.125Z,7.75
2023-03-08T22:11:21.676Z,10.40
2023-03-08T22:13:53.038Z,11.32
2023-03-08T22:16:20.794Z,10.30
2023-03-08T22:18:48.164Z,8.23
2023-03-08T22:21:15.314Z,9.90
2023-03-08T22:23:42.533Z,10.10
2023-03-08T22:26:10.238Z,11.50
2023-03-08T22:28:38.141Z,13.02
2023-03-08T22:31:15.960Z,11.18
2023-03-08T22:33:43.732Z,12.43
2023-03-08T22:36:11.927Z,11.45
2023-03-08T22:38:39.792Z,10.40
2023-03-08T22:41:12.574Z,13.55
2023-03-08T22:43:40.784Z,14.50
2023-03-08T22:46:13.111Z,10.13
2023-03-08T22:48:40.388Z,9.80
2023-03-08T22:51:11.165Z,11.45
2023-03-08T22:53:39.160Z,11.43
2023-03-08T22:56:06.730Z,9.55
2023-03-08T22:58:33.899Z,9.65
2023-03-08T23:01:01.130Z,7.82
2023-03-08T23:03:28.258Z,12.27
2023-03-08T23:05:56.408Z,8.77
2023-03-08T23:08:24.417Z,9.75
2023-03-08T23:10:51.703Z,9.15
2023-03-08T23:13:32.797Z,9.38
2023-03-08T23:16:00.726Z,10.07
2023-03-08T23:18:27.908Z,9.27
2023-03-08T23:20:55.125Z,7.18
2023-03-08T23:23:25.329Z,8.30
2023-03-08T23:25:52.681Z,6.80
2023-03-08T23:28:20.874Z,8.20
2023-03-08T23:30:48.123Z,7.10
2023-03-08T23:33:15.275Z,8.90
2023-03-08T23:35:42.638Z,7.00
2023-03-08T23:38:10.372Z,8.55
2023-03-08T23:40:39.978Z,6.38
2023-03-08T23:43:07.767Z,13.60
2023-03-08T23:45:35.091Z,7.93
2023-03-08T23:48:03.358Z,6.63
2023-03-08T23:50:30.852Z,6.28
2023-03-08T23:52:57.983Z,9.68
2023-03-08T23:55:25.200Z,8.85
2023-03-08T23:57:52.303Z,7.88
